Terminal Aerodrome Forecast
Issued by NWS Melbourne, FL

Home | Current Version | Previous Version | Text Only | Print | Product List | Glossary On
Versions: 1 2 3 4 5 6 7 8 9 10 11 12 13 14 15
000
FTUS42 KMLB 052320
TAFMLB
TAF
KMLB 052320Z 0600/0624 05011KT P6SM VCSH SCT025 OVC200
     FM060600 04011KT P6SM VCSH FEW025 BKN080
     FM061400 33013KT P6SM VCSH FEW025 SCT050 BKN250=

USA.gov is the U.S. government's official web portal to all federal, state and local government web resources and services.